createdAt,value
2023-04-23T00:00:49.174Z,3.50
2023-04-23T00:03:19.474Z,3.97
2023-04-23T00:05:47.614Z,3.08
2023-04-23T00:08:17.996Z,6.65
2023-04-23T00:10:45.963Z,3.53
2023-04-23T00:13:13.936Z,4.30
2023-04-23T00:15:41.685Z,4.25
2023-04-23T00:18:09.197Z,3.25
2023-04-23T00:20:36.932Z,4.95
2023-04-23T00:23:04.424Z,5.40
2023-04-23T00:25:32.183Z,4.78
2023-04-23T00:27:59.754Z,5.07
2023-04-23T00:30:27.340Z,4.97
2023-04-23T00:32:55.342Z,4.07
2023-04-23T00:35:23.376Z,4.20
2023-04-23T00:37:50.938Z,4.35
2023-04-23T00:40:18.618Z,6.22
2023-04-23T00:42:46.282Z,3.83
2023-04-23T00:45:13.974Z,5.28
2023-04-23T00:47:41.817Z,4.68
2023-04-23T00:50:09.819Z,6.13
2023-04-23T00:52:39.118Z,4.60
2023-04-23T00:55:08.455Z,5.43
2023-04-23T00:57:37.941Z,3.35
2023-04-23T01:00:07.445Z,8.82
2023-04-23T01:02:37.370Z,5.47
2023-04-23T01:05:07.671Z,5.70
2023-04-23T01:07:36.296Z,8.20
2023-04-23T01:10:05.238Z,4.82
2023-04-23T01:12:33.954Z,4.78
2023-04-23T01:15:02.135Z,8.10
2023-04-23T01:17:29.805Z,6.53
2023-04-23T01:19:57.417Z,4.57
2023-04-23T01:22:25.279Z,4.20
2023-04-23T01:24:53.175Z,7.20
2023-04-23T01:27:22.249Z,5.32
2023-04-23T01:29:49.948Z,4.32
2023-04-23T01:32:19.474Z,4.80
2023-04-23T01:34:48.150Z,5.10
2023-04-23T01:37:17.338Z,5.43
2023-04-23T01:39:44.981Z,5.47
2023-04-23T01:42:12.673Z,5.47
2023-04-23T01:44:40.803Z,5.15
2023-04-23T01:47:08.514Z,4.32
2023-04-23T01:49:36.325Z,4.35
2023-04-23T01:52:04.140Z,6.15
2023-04-23T01:54:31.665Z,4.65
2023-04-23T01:56:59.256Z,5.20
2023-04-23T01:59:27.198Z,4.25
2023-04-23T02:01:54.765Z,4.65
2023-04-23T02:04:23.037Z,3.67
2023-04-23T02:06:52.494Z,3.95
2023-04-23T02:09:20.137Z,6.38
2023-04-23T02:11:47.842Z,4.68
2023-04-23T02:14:17.365Z,4.28
2023-04-23T02:16:45.470Z,3.13
2023-04-23T02:19:15.351Z,2.85
2023-04-23T02:21:43.520Z,7.15
2023-04-23T02:24:11.700Z,5.47
2023-04-23T02:26:39.233Z,3.92
2023-04-23T02:29:06.742Z,4.05
2023-04-23T02:31:34.353Z,3.80
2023-04-23T02:34:01.843Z,4.60
2023-04-23T02:36:31.054Z,3.10
2023-04-23T02:38:58.553Z,3.00
2023-04-23T02:41:26.073Z,4.28
2023-04-23T02:43:53.572Z,4.22
2023-04-23T02:46:21.393Z,3.53
2023-04-23T02:48:49.054Z,4.63
2023-04-23T02:51:16.678Z,2.78
2023-04-23T02:53:44.176Z,2.92
2023-04-23T02:56:11.676Z,2.33
2023-04-23T02:58:39.265Z,2.28
2023-04-23T03:01:07.158Z,1.88
2023-04-23T03:03:34.957Z,2.45
2023-04-23T03:06:06.598Z,6.72
2023-04-23T03:08:34.314Z,2.55
2023-04-23T03:11:01.806Z,3.33
2023-04-23T03:13:29.543Z,2.20
2023-04-23T03:15:57.919Z,2.28
2023-04-23T03:18:27.014Z,2.03
2023-04-23T03:20:55.648Z,1.95
2023-04-23T03:23:24.642Z,3.60
2023-04-23T03:25:52.201Z,4.82
2023-04-23T03:28:19.996Z,1.55
2023-04-23T03:30:47.708Z,1.80
2023-04-23T03:33:15.314Z,3.28
2023-04-23T03:35:42.983Z,2.70
2023-04-23T03:38:15.591Z,2.80
2023-04-23T03:40:43.318Z,3.20
2023-04-23T03:43:12.219Z,4.10
2023-04-23T03:46:02.709Z,6.03
2023-04-23T03:48:33.175Z,4.47
2023-04-23T03:51:05.587Z,5.53
2023-04-23T03:53:58.885Z,4.83
2023-04-23T03:56:29.000Z,1.80
2023-04-23T03:59:28.908Z,2.53
2023-04-23T04:01:59.846Z,2.45
2023-04-23T04:04:28.320Z,2.03
2023-04-23T04:06:57.714Z,1.67
2023-04-23T04:09:29.431Z,2.92
2023-04-23T04:12:01.856Z,1.77
2023-04-23T04:14:29.631Z,2.40
2023-04-23T04:16:57.213Z,2.95
2023-04-23T04:19:24.941Z,2.05
2023-04-23T04:21:52.433Z,1.90
2023-04-23T04:24:19.916Z,1.50
2023-04-23T04:26:47.632Z,1.77
2023-04-23T04:29:15.178Z,1.45
2023-04-23T04:31:42.794Z,2.33
2023-04-23T04:34:10.491Z,2.33
2023-04-23T04:36:37.992Z,2.10
2023-04-23T04:39:05.564Z,2.85
2023-04-23T04:41:33.454Z,3.88
2023-04-23T04:44:00.944Z,1.35
2023-04-23T04:46:29.435Z,3.40
2023-04-23T04:48:57.035Z,2.08
2023-04-23T04:51:24.554Z,2.38
2023-04-23T04:53:52.080Z,1.33
2023-04-23T04:56:19.543Z,1.67
2023-04-23T04:58:47.186Z,2.47
2023-04-23T05:01:15.887Z,1.85
2023-04-23T05:03:43.723Z,1.38
2023-04-23T05:06:11.357Z,1.27
2023-04-23T05:08:38.831Z,1.30
2023-04-23T05:11:06.439Z,1.65
2023-04-23T05:13:33.956Z,2.10
2023-04-23T05:16:01.561Z,1.70
2023-04-23T05:18:29.564Z,1.80
2023-04-23T05:20:57.082Z,2.85
2023-04-23T05:23:24.652Z,1.50
2023-04-23T05:25:55.770Z,1.60
2023-04-23T05:28:23.280Z,1.30
2023-04-23T05:30:51.832Z,2.10
2023-04-23T05:33:19.389Z,2.60
2023-04-23T05:35:46.856Z,1.95
2023-04-23T05:38:14.376Z,1.98
2023-04-23T05:40:41.952Z,2.25
2023-04-23T05:43:09.655Z,1.80
2023-04-23T05:45:37.223Z,1.85
2023-04-23T05:48:04.819Z,2.45
2023-04-23T05:53:35.899Z,1.45
2023-04-23T05:56:03.749Z,1.30
2023-04-23T05:58:31.226Z,1.27
2023-04-23T06:00:58.772Z,1.70
2023-04-23T06:03:26.941Z,1.40
2023-04-23T06:05:54.827Z,2.05
2023-04-23T06:08:24.542Z,1.00
2023-04-23T06:10:52.701Z,1.58
2023-04-23T06:13:20.744Z,1.27
2023-04-23T06:15:48.249Z,2.05
2023-04-23T06:18:15.856Z,0.90
2023-04-23T06:20:43.473Z,2.03
2023-04-23T06:23:12.716Z,2.22
2023-04-23T06:25:40.493Z,2.05
2023-04-23T06:28:07.968Z,2.97
2023-04-23T06:30:44.129Z,2.42
2023-04-23T06:33:13.127Z,0.98
2023-04-23T06:35:40.679Z,1.20
2023-04-23T06:38:08.154Z,1.52
2023-04-23T06:40:35.776Z,1.58
2023-04-23T06:43:05.267Z,1.20
2023-04-23T06:45:56.247Z,1.00
2023-04-23T06:48:23.734Z,0.85
2023-04-23T06:50:51.361Z,2.35
2023-04-23T06:53:18.920Z,1.20
2023-04-23T06:55:46.428Z,1.15
2023-04-23T06:58:14.887Z,1.10
2023-04-23T07:00:43.515Z,1.40
2023-04-23T07:03:11.876Z,1.08
2023-04-23T07:05:39.397Z,1.38
2023-04-23T07:08:06.953Z,1.40
2023-04-23T07:10:34.456Z,1.90
2023-04-23T07:13:02.096Z,1.60
2023-04-23T07:15:29.696Z,1.83
2023-04-23T07:17:57.272Z,1.38
2023-04-23T07:20:24.857Z,2.13
2023-04-23T07:22:52.810Z,1.48
2023-04-23T07:25:22.427Z,1.58
2023-04-23T07:27:49.911Z,1.27
2023-04-23T07:30:17.735Z,3.05
2023-04-23T07:32:45.256Z,1.80
2023-04-23T07:35:13.030Z,3.25
2023-04-23T07:37:40.681Z,2.72
2023-04-23T07:40:09.356Z,2.17
2023-04-23T07:42:36.845Z,2.17
2023-04-23T07:45:05.843Z,2.10
2023-04-23T07:47:33.507Z,2.53
2023-04-23T07:50:01.129Z,3.40
2023-04-23T07:52:28.629Z,4.10
2023-04-23T07:54:56.254Z,1.98
2023-04-23T07:57:24.141Z,4.47
2023-04-23T07:59:51.798Z,3.35
2023-04-23T08:02:23.586Z,2.92
2023-04-23T08:04:51.378Z,2.25
2023-04-23T08:07:19.337Z,3.30
2023-04-23T08:09:47.386Z,2.55
2023-04-23T08:12:17.135Z,1.63
2023-04-23T08:14:47.216Z,2.13
2023-04-23T08:17:17.388Z,2.90
2023-04-23T08:19:44.887Z,3.47
2023-04-23T08:22:13.461Z,1.98
2023-04-23T08:24:41.084Z,1.95
2023-04-23T08:27:08.642Z,1.88
2023-04-23T08:29:36.285Z,3.08
2023-04-23T08:32:03.996Z,2.40
2023-04-23T08:34:31.489Z,2.40
2023-04-23T08:36:58.978Z,2.08
2023-04-23T08:39:27.938Z,2.83
2023-04-23T08:41:56.177Z,2.22
2023-04-23T08:44:26.187Z,2.70
2023-04-23T08:46:54.778Z,2.53
2023-04-23T08:49:22.297Z,2.88
2023-04-23T08:51:53.310Z,3.53
2023-04-23T08:54:28.351Z,1.73
2023-04-23T08:57:00.774Z,2.90
2023-04-23T08:59:34.173Z,2.00
2023-04-23T09:02:07.951Z,2.40
2023-04-23T09:04:36.977Z,2.83
2023-04-23T09:07:07.963Z,2.22
2023-04-23T09:09:36.647Z,2.97
2023-04-23T09:12:06.881Z,3.90
2023-04-23T09:14:35.628Z,3.97
2023-04-23T09:17:03.897Z,3.60
2023-04-23T09:19:31.635Z,3.10
2023-04-23T09:22:01.999Z,2.83
2023-04-23T09:24:30.112Z,3.50
2023-04-23T09:26:58.758Z,5.75
2023-04-23T09:29:26.800Z,1.90
2023-04-23T09:31:56.700Z,4.00
2023-04-23T09:34:25.456Z,2.40
2023-04-23T09:36:53.787Z,2.92
2023-04-23T09:39:24.631Z,2.28
2023-04-23T09:41:53.760Z,4.72
2023-04-23T09:44:23.146Z,2.75
2023-04-23T09:46:51.077Z,2.85
2023-04-23T09:49:18.863Z,2.65
2023-04-23T09:51:48.800Z,2.97
2023-04-23T09:54:22.668Z,2.65
2023-04-23T09:57:04.034Z,3.45
2023-04-23T09:59:47.014Z,3.65
2023-04-23T10:02:18.794Z,2.90
2023-04-23T10:04:52.328Z,2.38
2023-04-23T10:07:23.017Z,2.97
2023-04-23T10:09:50.498Z,3.47
2023-04-23T10:12:41.111Z,2.03
2023-04-23T10:15:09.583Z,2.78
2023-04-23T10:17:38.059Z,3.13
2023-04-23T10:20:10.248Z,3.65
2023-04-23T10:22:39.375Z,2.38
2023-04-23T10:25:11.761Z,2.35
2023-04-23T10:27:52.697Z,2.63
2023-04-23T10:30:22.433Z,2.20
2023-04-23T10:32:51.175Z,1.88
2023-04-23T10:35:18.956Z,3.65
2023-04-23T10:37:48.405Z,3.08
2023-04-23T10:40:27.742Z,2.08
2023-04-23T10:42:55.897Z,2.80
2023-04-23T10:45:25.186Z,2.10
2023-04-23T10:47:55.926Z,3.42
2023-04-23T10:50:29.600Z,3.67
2023-04-23T10:55:28.741Z,2.47
2023-04-23T10:58:07.512Z,4.07
2023-04-23T11:00:46.308Z,2.88
2023-04-23T11:03:44.122Z,2.80
2023-04-23T11:06:43.251Z,4.05
2023-04-23T11:09:54.063Z,3.65
2023-04-23T11:12:24.182Z,2.85
2023-04-23T11:14:54.737Z,2.40
2023-04-23T11:17:47.326Z,2.38
2023-04-23T11:20:20.760Z,3.13
2023-04-23T11:22:50.550Z,2.97
2023-04-23T11:25:27.672Z,2.13
2023-04-23T11:28:00.534Z,2.92
2023-04-23T11:30:30.053Z,1.60
2023-04-23T11:32:59.980Z,2.92
2023-04-23T11:35:29.417Z,2.38
2023-04-23T11:37:57.164Z,2.47
2023-04-23T11:40:25.980Z,1.73
2023-04-23T11:42:57.443Z,1.63
2023-04-23T11:45:28.278Z,1.40
2023-04-23T11:47:58.280Z,1.73
2023-04-23T11:50:33.092Z,1.42
2023-04-23T11:53:11.407Z,2.65
2023-04-23T11:55:43.697Z,1.27
2023-04-23T11:58:11.364Z,1.42
2023-04-23T12:00:38.900Z,1.27
2023-04-23T12:03:06.907Z,1.38
2023-04-23T12:05:39.286Z,1.80
2023-04-23T12:08:21.011Z,1.85
2023-04-23T12:11:00.761Z,1.40
2023-04-23T12:13:32.055Z,2.78
2023-04-23T12:16:02.612Z,1.50
2023-04-23T12:18:32.523Z,1.98
2023-04-23T12:21:06.910Z,2.42
2023-04-23T12:23:36.189Z,2.13
2023-04-23T12:26:04.532Z,2.55
2023-04-23T12:28:32.076Z,1.42
2023-04-23T12:31:02.029Z,1.38
2023-04-23T12:33:31.061Z,1.73
2023-04-23T12:35:59.807Z,2.63
2023-04-23T12:38:29.880Z,1.30
2023-04-23T12:41:01.841Z,1.30
2023-04-23T12:43:29.351Z,1.60
2023-04-23T12:45:56.935Z,2.22
2023-04-23T12:48:24.502Z,2.20
2023-04-23T12:50:51.995Z,2.28
2023-04-23T12:53:19.540Z,1.40
2023-04-23T12:55:48.345Z,1.90
2023-04-23T12:58:15.891Z,2.00
2023-04-23T13:00:43.414Z,2.88
2023-04-23T13:03:12.697Z,3.72
2023-04-23T13:05:40.289Z,2.80
2023-04-23T13:08:07.825Z,3.00
2023-04-23T13:10:35.367Z,5.47
2023-04-23T13:13:02.857Z,7.75
2023-04-23T13:15:30.444Z,11.50
2023-04-23T13:17:57.937Z,11.98
2023-04-23T13:20:26.139Z,5.45
2023-04-23T13:22:53.611Z,1.98
2023-04-23T13:25:21.106Z,2.20
2023-04-23T13:27:48.642Z,1.67
2023-04-23T13:30:16.236Z,1.60
2023-04-23T13:32:43.736Z,1.30
2023-04-23T13:35:11.823Z,2.38
2023-04-23T13:37:41.057Z,1.83
2023-04-23T13:40:09.118Z,1.65
2023-04-23T13:42:36.571Z,2.35
2023-04-23T13:45:06.123Z,1.83
2023-04-23T13:47:34.801Z,1.25
2023-04-23T13:50:06.822Z,3.00
2023-04-23T13:52:37.193Z,1.73
2023-04-23T13:55:07.437Z,1.52
2023-04-23T13:57:34.938Z,1.50
2023-04-23T14:00:02.534Z,1.55
2023-04-23T14:02:32.004Z,1.70
2023-04-23T14:04:59.640Z,2.00
2023-04-23T14:07:27.111Z,3.33
2023-04-23T14:09:54.604Z,1.33
2023-04-23T14:12:23.893Z,1.52
2023-04-23T14:14:51.442Z,1.90
2023-04-23T14:17:18.942Z,1.50
2023-04-23T14:19:47.193Z,2.33
2023-04-23T14:22:14.916Z,1.45
2023-04-23T14:25:02.984Z,1.55
2023-04-23T14:27:39.553Z,2.08
2023-04-23T14:30:16.946Z,2.03
2023-04-23T14:32:47.570Z,2.10
2023-04-23T14:35:17.353Z,1.55
2023-04-23T14:37:45.612Z,3.58
2023-04-23T14:40:15.769Z,1.80
2023-04-23T14:42:45.473Z,1.45
2023-04-23T14:45:14.023Z,1.88
2023-04-23T14:47:47.763Z,1.42
2023-04-23T14:50:16.624Z,2.10
2023-04-23T14:52:48.888Z,2.25
2023-04-23T14:55:19.334Z,1.75
2023-04-23T14:57:46.879Z,2.08
2023-04-23T15:00:15.544Z,2.35
2023-04-23T15:02:46.550Z,1.80
2023-04-23T15:05:16.474Z,1.90
2023-04-23T15:07:44.084Z,1.67
2023-04-23T15:10:12.149Z,1.52
2023-04-23T15:13:42.290Z,1.70
2023-04-23T15:16:46.910Z,2.53
2023-04-23T15:19:17.745Z,2.72
2023-04-23T15:21:46.616Z,2.30
2023-04-23T15:24:15.621Z,1.80
2023-04-23T15:26:45.665Z,2.15
2023-04-23T15:29:13.580Z,1.33
2023-04-23T15:31:41.974Z,2.13
2023-04-23T15:34:11.433Z,1.17
2023-04-23T15:36:39.076Z,1.10
2023-04-23T15:39:07.525Z,1.17
2023-04-23T15:41:39.553Z,2.30
2023-04-23T15:44:14.056Z,1.63
2023-04-23T15:46:41.558Z,1.40
2023-04-23T15:49:09.123Z,2.42
2023-04-23T15:51:37.473Z,1.80
2023-04-23T15:54:08.036Z,1.77
2023-04-23T15:56:36.564Z,1.42
2023-04-23T15:59:04.137Z,2.13
2023-04-23T16:01:31.770Z,1.80
2023-04-23T16:04:09.289Z,1.40
2023-04-23T16:06:38.206Z,1.88
2023-04-23T16:09:08.329Z,3.78
2023-04-23T16:11:37.452Z,3.50
2023-04-23T16:14:06.877Z,1.88
2023-04-23T16:16:34.528Z,2.80
2023-04-23T16:19:02.858Z,1.77
2023-04-23T16:21:31.963Z,1.77
2023-04-23T16:23:59.578Z,1.52
2023-04-23T16:26:28.918Z,1.75
2023-04-23T16:29:16.474Z,3.80
2023-04-23T16:31:44.991Z,2.95
2023-04-23T16:34:12.560Z,4.57
2023-04-23T16:36:40.158Z,2.83
2023-04-23T16:39:07.626Z,3.97
2023-04-23T16:41:35.132Z,3.20
2023-04-23T16:44:02.668Z,3.47
2023-04-23T16:46:31.941Z,4.53
2023-04-23T16:48:59.816Z,4.05
2023-04-23T16:51:28.353Z,2.67
2023-04-23T16:53:57.000Z,4.72
2023-04-23T16:56:24.701Z,2.65
2023-04-23T16:58:52.346Z,2.67
2023-04-23T17:01:19.941Z,3.47
2023-04-23T17:03:47.592Z,2.67
2023-04-23T17:06:24.553Z,3.45
2023-04-23T17:08:52.134Z,2.40
2023-04-23T17:11:19.786Z,2.30
2023-04-23T17:13:47.525Z,1.85
2023-04-23T17:16:15.201Z,2.75
2023-04-23T17:18:42.741Z,5.95
2023-04-23T17:21:13.276Z,3.42
2023-04-23T17:23:40.819Z,1.85
2023-04-23T17:26:08.333Z,1.92
2023-04-23T17:28:35.900Z,3.65
2023-04-23T17:31:03.850Z,5.90
2023-04-23T17:33:31.566Z,7.55
2023-04-23T17:35:59.328Z,2.63
2023-04-23T17:38:28.006Z,3.22
2023-04-23T17:40:55.816Z,5.43
2023-04-23T17:43:23.391Z,7.30
2023-04-23T17:45:51.173Z,7.93
2023-04-23T17:48:20.762Z,6.50
2023-04-23T17:50:50.685Z,6.18
2023-04-23T17:53:18.469Z,7.32
2023-04-23T17:55:46.297Z,4.88
2023-04-23T17:58:13.806Z,2.78
2023-04-23T18:00:42.834Z,2.88
2023-04-23T18:03:14.475Z,3.42
2023-04-23T18:05:42.551Z,2.00
2023-04-23T18:08:10.144Z,1.85
2023-04-23T18:10:37.847Z,2.45
2023-04-23T18:13:08.920Z,2.15
2023-04-23T18:15:36.621Z,2.92
2023-04-23T18:18:04.454Z,3.33
2023-04-23T18:20:34.979Z,5.13
2023-04-23T18:23:02.490Z,5.20
2023-04-23T18:25:30.310Z,6.47
2023-04-23T18:27:57.817Z,4.18
2023-04-23T18:30:25.706Z,3.47
2023-04-23T18:33:08.743Z,3.08
2023-04-23T18:35:36.355Z,3.97
2023-04-23T18:38:11.427Z,3.40
2023-04-23T18:40:38.969Z,2.45
2023-04-23T18:43:06.508Z,3.10
2023-04-23T18:45:34.356Z,3.03
2023-04-23T18:48:33.701Z,2.45
2023-04-23T18:51:08.556Z,3.55
2023-04-23T18:53:38.788Z,3.20
2023-04-23T18:56:06.388Z,4.03
2023-04-23T18:58:33.874Z,2.92
2023-04-23T19:01:01.518Z,3.00
2023-04-23T19:03:29.634Z,2.38
2023-04-23T19:05:57.854Z,1.88
2023-04-23T19:08:28.661Z,2.38
2023-04-23T19:10:57.165Z,2.60
2023-04-23T19:13:25.152Z,1.40
2023-04-23T19:15:52.742Z,1.23
2023-04-23T19:18:20.490Z,3.45
2023-04-23T19:20:48.724Z,1.50
2023-04-23T19:23:16.209Z,1.52
2023-04-23T19:25:43.829Z,1.23
2023-04-23T19:28:11.353Z,1.40
2023-04-23T19:30:38.935Z,1.75
2023-04-23T19:33:06.558Z,2.13
2023-04-23T19:35:34.088Z,1.45
2023-04-23T19:38:01.632Z,1.00
2023-04-23T19:40:29.154Z,1.02
2023-04-23T19:42:56.631Z,1.77
2023-04-23T19:45:24.631Z,1.75
2023-04-23T19:47:52.561Z,0.90
2023-04-23T19:50:20.585Z,2.88
2023-04-23T19:52:48.317Z,1.52
2023-04-23T19:55:18.134Z,0.80
2023-04-23T19:57:46.059Z,1.20
2023-04-23T20:00:14.346Z,1.27
2023-04-23T20:02:42.127Z,1.27
2023-04-23T20:05:12.805Z,1.58
2023-04-23T20:07:40.388Z,0.77
2023-04-23T20:10:08.526Z,2.05
2023-04-23T20:12:36.140Z,4.68
2023-04-23T20:15:13.174Z,9.90
2023-04-23T20:17:40.777Z,3.17
2023-04-23T20:20:10.907Z,1.63
2023-04-23T20:22:38.646Z,1.70
2023-04-23T20:25:07.084Z,3.05
2023-04-23T20:27:34.782Z,1.60
2023-04-23T20:30:04.683Z,0.70
2023-04-23T20:32:32.185Z,1.25
2023-04-23T20:35:00.160Z,1.10
2023-04-23T20:37:28.400Z,1.10
2023-04-23T20:39:55.958Z,0.68
2023-04-23T20:42:25.439Z,1.80
2023-04-23T20:44:52.923Z,1.08
2023-04-23T20:47:20.617Z,0.80
2023-04-23T20:49:48.172Z,0.85
2023-04-23T20:52:15.735Z,1.83
2023-04-23T20:54:45.089Z,1.92
2023-04-23T20:57:12.715Z,2.08
2023-04-23T20:59:41.696Z,1.77
2023-04-23T21:02:12.862Z,2.58
2023-04-23T21:04:41.171Z,2.20
2023-04-23T21:07:08.874Z,2.45
2023-04-23T21:09:36.409Z,0.68
2023-04-23T21:12:04.015Z,2.33
2023-04-23T21:14:33.910Z,1.42
2023-04-23T21:17:01.467Z,3.78
2023-04-23T21:19:28.996Z,1.23
2023-04-23T21:21:56.494Z,6.55
2023-04-23T21:24:23.995Z,5.55
2023-04-23T21:26:51.614Z,3.35
2023-04-23T21:29:19.149Z,2.42
2023-04-23T21:31:48.497Z,3.78
2023-04-23T21:34:16.161Z,3.88
2023-04-23T21:36:46.643Z,5.82
2023-04-23T21:39:14.173Z,6.07
2023-04-23T21:41:42.097Z,6.00
2023-04-23T21:44:09.577Z,8.80
2023-04-23T21:46:37.122Z,8.80
2023-04-23T21:49:04.912Z,4.60
2023-04-23T21:51:36.714Z,8.82
2023-04-23T21:54:05.735Z,6.13
2023-04-23T21:56:34.048Z,3.95
2023-04-23T21:59:02.264Z,2.42
2023-04-23T22:01:30.030Z,1.45
2023-04-23T22:03:58.801Z,0.98
2023-04-23T22:06:27.584Z,1.58
2023-04-23T22:08:56.687Z,1.20
2023-04-23T22:11:24.268Z,1.02
2023-04-23T22:13:51.744Z,1.27
2023-04-23T22:16:28.140Z,1.17
2023-04-23T22:19:00.359Z,0.68
2023-04-23T22:21:28.218Z,1.00
2023-04-23T22:23:55.988Z,1.50
2023-04-23T22:26:23.604Z,1.05
2023-04-23T22:28:51.082Z,2.10
2023-04-23T22:31:18.679Z,2.80
2023-04-23T22:33:46.335Z,0.77
2023-04-23T22:36:14.121Z,1.00
2023-04-23T22:38:41.949Z,1.00
2023-04-23T22:41:09.446Z,1.30
2023-04-23T22:43:36.913Z,0.68
2023-04-23T22:46:04.630Z,0.68
2023-04-23T22:48:32.218Z,0.95
2023-04-23T22:50:59.712Z,2.10
2023-04-23T22:53:27.195Z,1.90
2023-04-23T22:55:54.867Z,1.33
2023-04-23T22:58:22.375Z,1.10
2023-04-23T23:00:50.118Z,1.25
2023-04-23T23:03:17.688Z,2.78
2023-04-23T23:05:45.226Z,1.10
2023-04-23T23:08:12.793Z,1.50
2023-04-23T23:10:40.365Z,1.05
2023-04-23T23:13:07.836Z,0.95
2023-04-23T23:15:35.373Z,0.77
2023-04-23T23:18:02.923Z,1.45
2023-04-23T23:20:30.820Z,1.38
2023-04-23T23:22:58.369Z,1.33
2023-04-23T23:25:25.913Z,1.92
2023-04-23T23:27:53.404Z,2.15
2023-04-23T23:30:21.011Z,1.13
2023-04-23T23:32:48.686Z,2.42
2023-04-23T23:35:16.282Z,3.65
2023-04-23T23:37:43.772Z,1.45
2023-04-23T23:40:11.732Z,3.80
2023-04-23T23:42:39.279Z,2.30
2023-04-23T23:45:07.642Z,1.27
2023-04-23T23:47:35.196Z,1.67
2023-04-23T23:50:03.307Z,1.55
2023-04-23T23:52:30.900Z,1.05
2023-04-23T23:54:58.404Z,2.60
2023-04-23T23:57:25.996Z,1.77
2023-04-23T23:59:53.504Z,1.40
